Time;durP1;ratioP1;P1;durP2;ratioP2;P2;SDS_P1;SDS_P2;PMS_P1;PMS_P2;Temp;Humidity;BMP_temperature;BMP_pressure;BME280_temperature;BME280_humidity;BME280_pressure;Samples;Min_cycle;Max_cycle;Signal;HPM_P1;HPM_P2
2021/10/29 00:01:17;;;;;;;51.78;22.83;;;7.60;83.40;;;5.91;91.82;96026.28;4973802;28;20027;-62
2021/10/29 00:03:43;;;;;;;47.13;25.30;;;7.60;83.30;;;5.90;91.59;96036.91;4987138;28;20050;-62
2021/10/29 00:06:09;;;;;;;102.93;25.73;;;7.60;83.50;;;5.88;91.84;96026.56;4973276;28;20085;-62
2021/10/29 00:08:35;;;;;;;75.57;26.50;;;7.60;83.40;;;5.86;92.23;96025.91;4967848;28;20035;-62
2021/10/29 00:11:00;;;;;;;36.50;22.90;;;7.60;83.40;;;5.85;91.34;96021.66;4986109;28;20090;-62
2021/10/29 00:13:26;;;;;;;43.00;24.63;;;7.60;83.10;;;5.83;91.36;96024.44;4981818;28;20070;-62
2021/10/29 00:15:52;;;;;;;31.65;22.52;;;7.60;83.00;;;5.81;91.64;96025.56;4969579;28;20046;-62
2021/10/29 00:18:18;;;;;;;114.75;24.75;;;7.50;82.90;;;5.74;91.46;96014.97;4962336;28;20054;-62
2021/10/29 00:20:43;;;;;;;32.88;22.70;;;7.50;82.70;;;5.73;91.41;96012.53;4966585;28;20101;-63
2021/10/29 00:23:09;;;;;;;26.60;22.77;;;7.50;82.90;;;5.71;92.16;96019.69;4958127;28;20034;-62
2021/10/29 00:25:35;;;;;;;40.65;21.83;;;7.50;83.00;;;5.68;91.90;96009.59;4985315;28;20043;-62
2021/10/29 00:28:01;;;;;;;40.72;24.05;;;7.40;82.80;;;5.67;91.69;96018.41;4977026;28;20039;-62
2021/10/29 00:30:27;;;;;;;70.88;20.80;;;7.40;83.10;;;5.68;91.63;96015.63;4984360;28;20483;-62
2021/10/29 00:32:52;;;;;;;26.10;21.00;;;7.40;83.10;;;5.68;90.74;96020.84;4981233;28;20081;-62
2021/10/29 00:35:18;;;;;;;43.08;24.67;;;7.40;83.00;;;5.67;92.05;96024.44;4973590;28;20444;-62
2021/10/29 00:37:44;;;;;;;44.55;23.73;;;7.40;83.10;;;5.63;90.98;96025.69;4984854;28;20042;-62
2021/10/29 00:40:12;;;;;;;63.28;24.48;;;7.40;82.60;;;5.62;91.48;96023.25;4971495;28;20459;-62
2021/10/29 00:42:38;;;;;;;32.97;20.75;;;7.40;82.60;;;5.59;91.30;96016.56;4975835;28;20454;-62
2021/10/29 00:45:05;;;;;;;28.85;19.83;;;7.30;82.70;;;5.54;91.10;96013.63;4982421;28;20743;-62
2021/10/29 00:47:31;;;;;;;65.65;20.95;;;7.20;82.70;;;5.51;90.54;96017.38;4967084;28;20053;-62
2021/10/29 00:49:56;;;;;;;39.75;21.52;;;7.20;82.80;;;5.49;91.09;96015.91;4974117;28;20031;-62
2021/10/29 00:52:22;;;;;;;62.72;19.30;;;7.20;82.60;;;5.47;90.52;96007.41;4983705;28;20078;-62
2021/10/29 00:54:48;;;;;;;36.70;19.60;;;7.10;82.40;;;5.44;90.11;96005.13;4951789;28;20062;-62
2021/10/29 00:57:14;;;;;;;22.60;18.00;;;7.10;82.70;;;5.38;90.67;96009.19;4965061;28;20060;-62
2021/10/29 00:59:39;;;;;;;36.47;14.48;;;7.10;82.40;;;5.37;90.27;96010.16;4965335;28;20031;-61
2021/10/29 01:02:05;;;;;;;24.55;18.02;;;7.10;82.20;;;5.36;90.65;95999.88;4965611;28;20427;-61
2021/10/29 01:04:31;;;;;;;21.15;18.80;;;7.10;82.30;;;5.36;89.99;96000.69;4982005;28;20564;-62
2021/10/29 01:06:57;;;;;;;23.52;18.17;;;7.10;82.20;;;5.34;90.39;95992.22;4983401;28;20019;-62
2021/10/29 01:09:23;;;;;;;29.77;19.40;;;7.10;82.00;;;5.35;90.37;95995.63;4954114;28;20031;-62
2021/10/29 01:11:49;;;;;;;100.13;18.55;;;7.10;81.90;;;5.27;90.19;95995.63;4967360;28;20499;-62
2021/10/29 01:14:15;;;;;;;29.77;19.02;;;7.00;81.70;;;5.22;90.18;95996.09;4963879;28;20042;-62
2021/10/29 01:16:41;;;;;;;27.67;18.38;;;6.90;82.00;;;5.15;90.20;95992.47;4967625;28;20479;-62
2021/10/29 01:19:07;;;;;;;43.35;17.75;;;6.80;82.20;;;5.12;89.76;95987.59;4964556;28;20118;-61
2021/10/29 01:21:33;;;;;;;26.38;17.88;;;6.80;82.00;;;5.06;89.45;95998.66;4950484;28;20035;-61
2021/10/29 01:23:58;;;;;;;29.42;17.23;;;6.80;82.00;;;5.05;89.93;95997.03;4968695;28;20050;-62
2021/10/29 01:26:24;;;;;;;48.50;18.17;;;6.80;82.00;;;5.02;89.35;95989.50;4972395;28;20125;-62
2021/10/29 01:28:50;;;;;;;41.55;18.95;;;6.80;82.00;;;4.97;89.97;95982.13;4982011;28;20070;-62
2021/10/29 01:31:16;;;;;;;33.80;19.35;;;6.70;82.30;;;4.95;90.19;95978.06;4963627;28;20092;-62
2021/10/29 01:33:42;;;;;;;71.15;19.25;;;6.70;82.20;;;4.91;90.34;95975.78;4965553;28;20446;-62
2021/10/29 01:36:08;;;;;;;25.27;19.98;;;6.60;82.30;;;4.90;90.67;95971.53;4981423;28;20058;-62
2021/10/29 01:38:39;;;;;;;55.08;18.52;;;6.60;82.60;;;4.90;90.44;95968.94;4974063;28;20058;-61
2021/10/29 01:41:05;;;;;;;66.18;20.02;;;6.70;82.70;;;4.89;90.05;95961.28;4977705;28;20046;-62
2021/10/29 01:43:38;;;;;;;113.97;19.42;;;6.60;82.60;;;4.85;90.62;95962.56;4972004;28;20042;-62
2021/10/29 01:46:03;;;;;;;37.90;19.67;;;6.60;82.40;;;4.84;90.93;95963.53;4966654;28;20058;-62
2021/10/29 01:48:30;;;;;;;59.38;20.80;;;6.60;82.90;;;4.80;91.06;95952.63;4966514;28;20316;-62
2021/10/29 01:50:55;;;;;;;58.13;18.35;;;6.50;82.90;;;4.78;90.39;95951.16;4970523;28;20062;-62
2021/10/29 01:53:21;;;;;;;21.58;18.80;;;6.50;82.90;;;4.79;90.62;95955.38;4967910;28;20537;-62
2021/10/29 01:55:47;;;;;;;31.27;18.60;;;6.60;83.10;;;4.79;90.74;95950.97;4979998;28;20035;-62
2021/10/29 01:58:13;;;;;;;72.95;19.95;;;6.60;83.10;;;4.76;90.95;95948.69;4979649;28;20539;-62
2021/10/29 02:00:39;;;;;;;96.13;18.88;;;6.50;82.90;;;4.78;91.03;95948.53;4963834;28;20088;-62
2021/10/29 02:03:05;;;;;;;64.75;19.15;;;6.60;82.90;;;4.77;90.52;95950.31;4974588;28;20027;-62
2021/10/29 02:05:31;;;;;;;58.00;20.52;;;6.50;82.90;;;4.73;90.41;95941.16;4968950;28;20038;-62
2021/10/29 02:07:56;;;;;;;61.78;17.98;;;6.50;82.60;;;4.68;91.12;95933.00;4951398;28;20522;-61
2021/10/29 02:10:22;;;;;;;31.33;18.65;;;6.50;82.80;;;4.69;90.44;95939.03;4959041;28;20058;-61
2021/10/29 02:12:48;;;;;;;39.15;19.55;;;6.50;82.90;;;4.66;90.55;95940.16;4965651;28;20035;-62
2021/10/29 02:15:13;;;;;;;30.83;19.75;;;6.50;82.70;;;4.67;90.83;95936.59;4966594;28;20039;-63
2021/10/29 02:17:39;;;;;;;24.65;18.17;;;6.50;82.80;;;4.70;90.70;95925.03;4983871;28;20035;-62
2021/10/29 02:20:06;;;;;;;37.53;19.45;;;6.50;82.60;;;4.67;90.93;95928.78;4964821;28;20065;-62
2021/10/29 02:22:32;;;;;;;65.97;28.13;;;6.50;82.70;;;4.66;90.81;95921.94;4966800;28;20502;-62
2021/10/29 02:24:58;;;;;;;45.00;29.20;;;6.40;82.80;;;4.65;91.20;95920.31;4967228;28;20039;-62
2021/10/29 02:27:24;;;;;;;33.83;23.73;;;6.50;83.00;;;4.64;90.93;95918.66;4968149;28;20435;-62
2021/10/29 02:29:49;;;;;;;37.40;27.27;;;6.40;83.10;;;4.66;90.64;95921.94;4977201;28;20039;-61
2021/10/29 02:32:15;;;;;;;57.03;39.08;;;6.50;82.90;;;4.66;90.48;95919.31;4991204;28;20031;-63
2021/10/29 02:34:41;;;;;;;28.30;21.67;;;6.50;82.70;;;4.61;90.77;95916.38;4968633;28;20043;-65
2021/10/29 02:37:06;;;;;;;32.90;19.05;;;6.40;82.40;;;4.59;90.68;95913.13;4956312;28;20356;-65
2021/10/29 02:39:32;;;;;;;45.33;20.00;;;6.40;82.30;;;4.56;90.57;95918.66;4962270;28;20112;-65
2021/10/29 02:42:02;;;;;;;33.22;22.52;;;6.30;81.80;;;4.53;89.74;95916.34;4979216;28;20061;-63
2021/10/29 02:44:28;;;;;;;43.47;24.25;;;6.30;81.90;;;4.53;90.59;95919.78;4961423;28;20035;-62
2021/10/29 02:46:53;;;;;;;55.50;23.15;;;6.30;82.20;;;4.52;90.25;95917.28;4968548;28;20063;-61
2021/10/29 02:49:19;;;;;;;53.30;21.90;;;6.30;82.20;;;4.50;90.30;95914.84;4982528;28;20053;-62
2021/10/29 02:51:45;;;;;;;59.63;24.27;;;6.30;82.40;;;4.48;90.79;95914.19;4968063;28;20451;-61
2021/10/29 02:54:11;;;;;;;38.60;18.38;;;6.20;82.80;;;4.47;90.71;95914.34;4968221;28;20027;-61
2021/10/29 02:56:37;;;;;;;23.27;17.98;;;6.20;82.40;;;4.47;90.28;95914.34;4950048;28;20035;-61
2021/10/29 02:59:02;;;;;;;32.38;17.52;;;6.30;82.50;;;4.47;90.24;95901.34;4984042;28;20034;-61
2021/10/29 03:01:28;;;;;;;35.47;17.90;;;6.20;82.10;;;4.45;89.89;95911.09;4963160;28;20450;-61
2021/10/29 03:03:54;;;;;;;23.08;16.92;;;6.20;82.00;;;4.40;90.41;95911.56;4968502;28;20402;-61
2021/10/29 03:06:20;;;;;;;21.77;15.13;;;6.20;82.30;;;4.42;90.09;95914.00;4951184;28;20450;-61
2021/10/29 03:08:45;;;;;;;25.70;17.20;;;6.20;82.00;;;4.40;90.10;95908.97;4953758;28;20043;-61
2021/10/29 03:11:11;;;;;;;22.80;17.88;;;6.20;82.30;;;4.40;90.35;95908.97;4965517;28;20050;-61
2021/10/29 03:13:37;;;;;;;35.47;18.92;;;6.20;82.60;;;4.41;90.48;95909.78;4967944;28;20046;-61
2021/10/29 03:16:03;;;;;;;26.13;18.38;;;6.20;82.70;;;4.42;90.87;95898.38;4959771;28;20654;-61
2021/10/29 03:18:29;;;;;;;27.05;17.40;;;6.30;82.90;;;4.44;90.82;95906.84;4981309;28;20035;-61
2021/10/29 03:20:54;;;;;;;26.20;15.55;;;6.30;82.50;;;4.40;90.92;95908.13;4976174;28;20132;-61
2021/10/29 03:23:20;;;;;;;24.67;16.35;;;6.20;81.90;;;4.37;90.13;95906.66;4935175;28;20047;-61
2021/10/29 03:25:46;;;;;;;54.33;17.10;;;6.20;81.80;;;4.37;90.56;95913.66;4983824;28;20039;-61
2021/10/29 03:28:12;;;;;;;36.00;21.02;;;6.20;81.80;;;4.35;90.62;95900.81;4967893;28;20059;-61
2021/10/29 03:30:38;;;;;;;38.22;25.80;;;6.20;81.90;;;4.33;90.22;95897.53;4966331;28;20128;-61
2021/10/29 03:33:04;;;;;;;28.77;16.38;;;6.10;81.70;;;4.29;89.92;95891.81;4967950;28;20589;-61
2021/10/29 03:35:30;;;;;;;20.02;15.15;;;6.10;81.50;;;4.30;89.78;95887.44;4957933;28;20043;-61
2021/10/29 03:38:19;;;;;;;17.77;15.60;;;6.10;81.40;;;4.29;90.01;95881.38;4954133;28;20047;-61
2021/10/29 03:48:17;;;;;;;42.65;17.02;;;6.10;81.60;;;4.25;89.85;95874.88;4983467;28;20506;-63
2021/10/29 03:50:48;;;;;;;25.23;17.05;;;6.10;81.60;;;4.25;89.92;95874.88;4979261;28;20046;-63
2021/10/29 03:53:35;;;;;;;;;;;6.10;81.90;;;4.21;91.09;95860.53;4975818;28;20104;-63
2021/10/29 03:56:03;;;;;;;20.35;15.98;;;6.10;81.80;;;4.20;89.46;95871.09;4985367;28;19914;-63
2021/10/29 03:58:28;;;;;;;37.55;17.23;;;6.10;81.90;;;4.20;89.77;95874.53;4968551;28;20418;-63
2021/10/29 04:00:54;;;;;;;25.50;17.88;;;6.10;82.00;;;4.19;89.30;95870.28;4969237;28;20039;-64
2021/10/29 04:03:20;;;;;;;29.58;18.55;;;6.10;82.10;;;4.18;90.06;95863.44;4991880;23;20054;-67
2021/10/29 04:05:46;;;;;;;24.45;17.08;;;6.10;82.30;;;4.20;89.90;95863.28;5007007;28;20034;-66
2021/10/29 04:08:12;;;;;;;21.38;17.42;;;6.10;82.30;;;4.17;90.04;95856.63;5014376;28;20030;-66
2021/10/29 04:10:45;;;;;;;35.90;17.75;;;6.10;82.30;;;4.18;89.96;95866.06;5003770;28;20360;-65
2021/10/29 04:13:11;;;;;;;29.77;18.10;;;6.10;82.50;;;4.17;90.33;95867.03;5005258;28;20566;-67
2021/10/29 04:15:41;;;;;;;35.85;17.95;;;6.10;82.30;;;4.13;90.67;95863.09;5015598;28;20120;-66
2021/10/29 04:18:10;;;;;;;40.05;16.17;;;6.00;82.20;;;4.10;90.70;95865.19;5031807;28;20504;-65
2021/10/29 04:20:36;;;;;;;48.15;17.38;;;5.90;81.90;;;4.06;90.07;95869.06;5031429;28;20045;-65
2021/10/29 04:23:03;;;;;;;28.30;17.00;;;5.90;82.00;;;4.07;90.62;95858.50;4999111;28;20052;-67
2021/10/29 04:25:28;;;;;;;21.75;16.58;;;5.90;82.50;;;4.04;90.71;95850.19;5014399;28;20498;-68
2021/10/29 04:27:58;;;;;;;44.05;18.35;;;5.90;82.40;;;4.02;90.16;95850.34;5015369;28;20037;-66
2021/10/29 04:30:26;;;;;;;28.75;17.38;;;5.80;82.20;;;4.00;90.02;95854.88;5031763;28;20021;-66
2021/10/29 04:32:52;;;;;;;53.97;17.45;;;5.80;82.40;;;3.97;89.93;95861.22;5015167;28;20060;-65
2021/10/29 04:35:18;;;;;;;28.23;17.60;;;5.80;82.40;;;3.98;90.24;95867.25;4998002;28;20041;-69
2021/10/29 04:37:43;;;;;;;27.83;17.10;;;5.80;82.40;;;3.98;90.64;95862.03;5028540;28;20032;-68
2021/10/29 04:40:09;;;;;;;29.05;14.48;;;5.90;82.30;;;3.93;89.92;95862.50;5008790;28;20037;-67
2021/10/29 04:42:36;;;;;;;64.07;15.75;;;5.80;82.00;;;3.92;90.61;95849.66;5034598;28;20068;-68
2021/10/29 04:45:04;;;;;;;38.55;16.10;;;5.80;81.80;;;3.88;90.63;95850.94;5017397;28;20041;-66
2021/10/29 04:47:30;;;;;;;35.92;15.32;;;5.70;82.10;;;3.88;90.34;95856.13;4988152;28;20091;-66
2021/10/29 04:49:55;;;;;;;33.72;16.10;;;5.70;82.10;;;3.88;90.56;95846.53;5030808;28;20126;-66
2021/10/29 04:52:21;;;;;;;42.25;17.48;;;5.70;82.10;;;3.88;90.33;95848.31;5014408;28;20036;-66
2021/10/29 04:54:47;;;;;;;19.75;15.45;;;5.70;82.10;;;3.88;90.26;95843.13;5014514;28;20496;-66
2021/10/29 04:57:12;;;;;;;18.25;14.30;;;5.70;82.10;;;3.87;89.93;95838.88;5030603;28;20511;-65
2021/10/29 04:59:38;;;;;;;23.08;14.88;;;5.70;82.20;;;3.86;90.38;95840.69;5030803;28;20471;-66
2021/10/29 05:02:04;;;;;;;53.33;15.50;;;5.70;82.00;;;3.84;90.11;95833.97;5013384;28;20467;-66
2021/10/29 05:04:30;;;;;;;18.60;14.90;;;5.60;82.00;;;3.83;90.28;95834.94;4994501;28;20593;-67
2021/10/29 05:06:55;;;;;;;29.60;15.05;;;5.60;82.20;;;3.85;90.14;95839.03;5009974;28;20417;-66
2021/10/29 05:09:21;;;;;;;37.53;14.75;;;5.70;82.20;;;3.82;90.03;95835.91;5016278;28;20075;-66
2021/10/29 05:11:47;;;;;;;31.55;14.48;;;5.70;81.80;;;3.76;90.25;95831.31;5030929;28;20111;-66
2021/10/29 05:14:12;;;;;;;26.80;14.20;;;5.60;82.00;;;3.73;89.83;95837.66;5010878;28;20445;-66
2021/10/29 05:16:38;;;;;;;33.40;15.43;;;5.60;82.20;;;3.75;90.25;95834.91;5007942;28;20142;-66
2021/10/29 05:19:05;;;;;;;21.52;14.40;;;5.60;82.10;;;3.76;90.48;95831.31;5010822;28;20041;-66
2021/10/29 05:21:31;;;;;;;18.73;13.95;;;5.70;82.40;;;3.76;91.13;95833.94;5029874;28;20041;-66
2021/10/29 05:23:57;;;;;;;58.65;15.45;;;5.70;82.40;;;3.76;90.22;95834.75;5022092;28;20408;-66
2021/10/29 05:26:23;;;;;;;35.38;14.43;;;5.60;82.20;;;3.72;90.68;95820.41;5013825;28;20029;-66
2021/10/29 05:28:48;;;;;;;30.70;15.73;;;5.60;82.30;;;3.74;90.71;95822.88;5013917;28;20064;-65
2021/10/29 05:31:14;;;;;;;26.83;16.13;;;5.60;82.40;;;3.73;90.88;95816.03;5029162;28;20575;-67
2021/10/29 05:33:41;;;;;;;43.50;16.05;;;5.70;82.50;;;3.75;91.12;95824.50;5010974;28;20167;-66
2021/10/29 05:36:07;;;;;;;31.75;16.00;;;5.70;82.80;;;3.77;90.83;95825.16;5013950;28;20109;-65
2021/10/29 05:38:32;;;;;;;37.35;14.93;;;5.60;82.70;;;3.77;90.87;95819.94;5013635;28;20068;-66
2021/10/29 05:41:00;;;;;;;40.00;15.70;;;5.70;82.80;;;3.77;91.08;95825.16;5012675;28;20034;-66
2021/10/29 05:43:27;;;;;;;20.90;16.20;;;5.70;82.60;;;3.76;91.02;95829.53;5030640;28;20596;-66
2021/10/29 05:45:52;;;;;;;26.50;16.58;;;5.70;82.70;;;3.81;91.01;95826.47;5013773;28;20519;-66
2021/10/29 05:48:18;;;;;;;20.02;16.73;;;5.80;82.80;;;3.79;90.94;95829.22;5013554;28;20132;-66
2021/10/29 05:50:48;;;;;;;32.30;17.02;;;5.70;82.70;;;3.79;91.29;95823.22;5026328;28;20112;-65
2021/10/29 05:53:36;;;;;;;28.63;15.52;;;5.70;82.90;;;3.81;91.38;95824.69;5016846;28;20033;-66
2021/10/29 05:56:03;;;;;;;26.58;15.20;;;5.70;82.80;;;3.82;90.98;95836.72;5016563;28;20517;-66
2021/10/29 05:58:29;;;;;;;21.08;15.23;;;5.80;82.60;;;3.83;91.16;95827.94;5013364;28;20047;-66
2021/10/29 06:00:55;;;;;;;19.92;15.52;;;5.80;82.70;;;3.88;91.41;95835.31;5013228;28;20037;-67
2021/10/29 06:03:21;;;;;;;17.00;14.43;;;5.80;82.60;;;3.89;91.45;95837.75;5012680;28;20053;-66
2021/10/29 06:05:46;;;;;;;43.42;16.17;;;5.90;82.90;;;3.95;91.97;95838.94;5013295;28;20468;-66
2021/10/29 06:08:12;;;;;;;26.05;15.10;;;5.90;83.80;;;4.02;92.36;95839.13;5012720;28;20532;-65
2021/10/29 06:10:39;;;;;;;19.65;15.38;;;6.10;84.30;;;4.08;91.75;95835.91;5029371;28;20539;-66
2021/10/29 06:13:04;;;;;;;34.80;15.52;;;6.00;83.70;;;4.10;92.29;95834.78;5029422;28;20040;-66
2021/10/29 06:15:32;;;;;;;32.15;14.75;;;6.10;83.20;;;4.10;91.53;95833.97;5012687;28;20037;-66
2021/10/29 06:17:58;;;;;;;26.33;14.15;;;6.10;82.60;;;4.09;91.21;95833.16;5029567;28;20120;-67
2021/10/29 06:20:25;;;;;;;22.42;15.13;;;5.90;82.40;;;4.07;91.63;95829.88;5028917;28;20041;-66
2021/10/29 06:22:53;;;;;;;22.05;14.90;;;6.00;82.30;;;4.09;91.47;95832.34;5002644;28;20038;-67
2021/10/29 06:25:20;;;;;;;45.42;13.93;;;6.10;82.40;;;4.07;91.50;95840.28;5012679;28;20491;-67
2021/10/29 06:30:34;;;;;;;25.25;14.68;;;6.00;82.10;;;4.07;90.98;95839.47;5015430;28;20036;-67
2021/10/29 06:33:00;;;;;;;39.13;14.93;;;6.00;81.70;;;4.07;90.96;95837.66;5013364;28;20029;-67
2021/10/29 06:35:26;;;;;;;34.65;16.13;;;6.00;82.10;;;4.08;91.14;95835.91;5012326;28;20412;-66
2021/10/29 06:37:52;;;;;;;35.22;14.55;;;6.10;82.10;;;4.09;91.16;95838.38;5012788;28;20043;-67
2021/10/29 06:40:19;;;;;;;64.30;15.63;;;6.10;82.20;;;4.09;91.02;95837.53;5012226;28;20029;-66
2021/10/29 06:42:51;;;;;;;44.15;15.77;;;6.10;82.20;;;4.07;91.42;95834.25;5012738;28;20402;-67
2021/10/29 06:45:34;;;;;;;47.15;13.43;;;6.10;82.10;;;4.06;91.72;95843.03;5028575;28;20036;-67
2021/10/29 07:01:52;;;;;;;30.75;24.90;;;6.20;83.20;;;4.13;92.38;95850.09;5009268;28;20056;-66
2021/10/29 07:40:09;;;;;;;23.30;18.40;;;6.50;80.60;;;4.52;90.53;95860.00;5018010;28;20072;-67
2021/10/29 07:42:41;;;;;;;26.02;16.98;;;6.60;80.80;;;4.54;90.81;95858.09;5028587;28;20029;-67
2021/10/29 07:45:08;;;;;;;28.27;19.92;;;6.60;80.60;;;4.61;90.87;95856.47;4996965;28;20041;-66
2021/10/29 07:47:35;;;;;;;23.23;16.95;;;6.70;80.50;;;4.64;90.14;95863.97;5028187;28;20044;-66
2021/10/29 07:50:02;;;;;;;20.25;16.15;;;6.70;80.60;;;4.67;90.87;95861.03;4995753;28;20021;-66
2021/10/29 07:52:28;;;;;;;41.38;14.05;;;6.80;80.50;;;4.73;90.46;95868.22;5027434;28;20026;-66
2021/10/29 07:54:54;;;;;;;26.48;14.43;;;6.80;79.70;;;4.78;90.20;95873.78;5028493;28;20037;-67
2021/10/29 07:57:20;;;;;;;19.10;15.40;;;6.90;80.00;;;4.84;90.21;95874.94;4995132;28;20049;-66
2021/10/29 07:59:47;;;;;;;18.13;13.82;;;7.00;80.10;;;4.90;89.81;95877.72;5011893;28;20025;-67
2021/10/29 08:02:15;;;;;;;15.70;13.60;;;7.10;79.70;;;4.92;90.14;95878.38;4992435;28;20113;-68
2021/10/29 08:04:41;;;;;;;33.42;15.35;;;7.10;79.60;;;5.01;90.34;95886.22;4992417;28;20072;-66
2021/10/29 08:07:09;;;;;;;38.05;14.25;;;7.10;79.70;;;5.06;89.19;95878.75;5008366;28;20030;-66
2021/10/29 08:09:35;;;;;;;26.50;14.40;;;7.10;79.20;;;5.04;88.68;95875.47;5007757;28;20089;-67
2021/10/29 08:12:01;;;;;;;21.50;14.68;;;6.90;79.20;;;5.03;88.81;95876.44;5028177;28;20470;-66
2021/10/29 08:14:26;;;;;;;20.80;15.30;;;7.00;79.20;;;5.04;89.35;95876.28;5027896;28;20037;-66
2021/10/29 08:16:53;;;;;;;26.63;14.25;;;7.10;79.00;;;5.04;89.27;95883.28;5011896;28;20087;-66
2021/10/29 08:19:25;;;;;;;44.80;15.75;;;7.00;79.00;;;5.00;88.92;95880.19;5027725;28;20033;-67
2021/10/29 08:21:51;;;;;;;31.65;16.63;;;6.90;79.50;;;4.97;89.03;95869.25;5017039;28;20041;-66
2021/10/29 08:24:18;;;;;;;22.52;16.45;;;7.00;79.80;;;5.00;89.42;95874.16;5014895;28;20072;-67
2021/10/29 08:26:44;;;;;;;24.92;15.38;;;7.00;80.10;;;5.03;89.44;95871.25;5014954;28;20065;-66
2021/10/29 08:29:10;;;;;;;18.50;16.50;;;7.10;79.90;;;5.03;89.41;95874.66;5014899;28;20033;-67
2021/10/29 08:31:36;;;;;;;17.33;15.38;;;7.10;80.30;;;5.07;88.96;95869.94;5031036;28;20048;-67
2021/10/29 08:34:02;;;;;;;20.77;15.88;;;7.10;79.60;;;5.06;88.73;95870.91;5031597;28;20029;-66
2021/10/29 08:36:29;;;;;;;27.05;23.80;;;7.00;79.20;;;5.05;89.35;95861.47;5031597;28;20029;-66
2021/10/29 08:38:55;;;;;;;20.05;16.70;;;7.10;79.20;;;5.09;88.79;95868.00;5013680;28;20653;-66
2021/10/29 08:41:22;;;;;;;17.10;14.65;;;7.10;79.50;;;5.08;88.52;95861.13;5015601;28;20026;-67
2021/10/29 08:43:48;;;;;;;30.88;15.82;;;7.10;79.00;;;5.11;88.66;95863.41;5014448;28;20133;-67
2021/10/29 08:46:15;;;;;;;32.33;15.93;;;7.00;78.70;;;5.10;88.28;95865.22;5014699;28;20404;-66
2021/10/29 08:48:42;;;;;;;18.25;15.98;;;7.10;79.00;;;5.12;88.92;95872.88;5014866;28;20036;-67
2021/10/29 08:51:08;;;;;;;32.55;16.15;;;7.20;79.00;;;5.15;88.53;95872.56;5014768;28;20037;-67
2021/10/29 08:53:34;;;;;;;22.55;15.20;;;7.20;79.20;;;5.17;88.76;95870.59;5013990;28;20887;-67
2021/10/29 08:56:03;;;;;;;19.10;16.38;;;7.20;79.20;;;5.17;88.82;95866.19;5031170;28;20405;-66
2021/10/29 08:58:31;;;;;;;27.17;16.73;;;7.30;79.20;;;5.22;88.76;95870.94;5017072;28;20165;-66
2021/10/29 09:01:02;;;;;;;19.45;16.55;;;7.30;79.30;;;5.27;89.80;95875.69;5011068;28;20033;-66
2021/10/29 09:03:42;;;;;;;;;;;7.30;79.40;;;5.23;89.62;95869.97;5027298;28;20370;-67
2021/10/29 09:17:15;;;;;;;19.42;17.42;;;7.50;79.90;;;5.42;89.78;95853.97;5031245;28;20037;-66
2021/10/29 09:34:11;;;;;;;20.80;16.05;;;7.50;78.70;;;5.50;89.05;95861.00;5010529;28;20037;-66
2021/10/29 09:36:54;;;;;;;25.52;17.80;;;7.40;79.40;;;5.48;88.62;95858.56;5010482;28;20034;-66
2021/10/29 09:39:23;;;;;;;23.58;18.67;;;7.50;79.00;;;5.51;88.53;95858.25;5014170;28;20525;-66
2021/10/29 09:42:07;;;;;;;46.78;16.45;;;7.60;79.20;;;5.54;88.24;95851.88;5013655;28;20026;-65
2021/10/29 09:44:44;;;;;;;19.67;17.17;;;7.50;78.80;;;5.54;88.19;95852.69;5014035;28;20040;-66
2021/10/29 09:47:09;;;;;;;22.45;16.92;;;7.50;79.10;;;5.54;88.78;95852.69;5013545;28;20045;-66
2021/10/29 09:49:50;;;;;;;18.40;16.33;;;7.50;79.00;;;5.57;88.96;95845.50;5012809;28;20053;-65
2021/10/29 09:57:33;;;;;;;18.10;16.00;;;7.60;78.60;;;5.62;87.96;95848.44;5029520;28;20042;-65
2021/10/29 10:00:00;;;;;;;16.92;15.20;;;7.60;78.70;;;5.64;88.93;95847.28;5013274;28;20029;-66
2021/10/29 10:02:28;;;;;;;19.45;16.98;;;7.80;78.90;;;5.71;88.48;95839.66;4999451;28;20049;-66
2021/10/29 10:04:59;;;;;;;21.92;19.48;;;7.90;78.40;;;5.79;88.39;95842.22;5010031;28;20045;-66
2021/10/29 10:07:35;;;;;;;19.33;15.35;;;8.00;78.00;;;5.81;87.96;95841.09;5009375;28;20030;-67
2021/10/29 10:10:01;;;;;;;17.67;15.77;;;7.90;78.20;;;5.85;87.99;95836.34;4993472;28;20022;-66
2021/10/29 10:12:35;;;;;;;17.48;15.65;;;8.10;77.30;;;5.89;87.55;95835.06;5009795;28;20030;-67
2021/10/29 10:15:05;;;;;;;18.05;15.13;;;8.00;77.30;;;5.89;87.86;95840.28;5010212;28;20037;-66
2021/10/29 10:17:31;;;;;;;19.63;15.68;;;8.10;77.00;;;5.93;86.77;95833.75;5028672;28;20033;-66
2021/10/29 10:19:58;;;;;;;17.90;16.00;;;8.00;76.40;;;5.96;87.38;95838.66;5013044;28;20429;-66
2021/10/29 10:22:27;;;;;;;17.85;16.05;;;8.10;77.00;;;5.98;86.89;95828.84;5012961;28;20080;-66
2021/10/29 10:24:59;;;;;;;17.50;15.65;;;8.10;77.20;;;5.99;87.61;95838.31;5013347;28;20495;-66
2021/10/29 10:30:04;;;;;;;18.50;16.60;;;8.10;77.30;;;6.05;86.99;95840.25;5029080;28;20064;-66
2021/10/29 10:48:37;;;;;;;14.30;12.90;;;8.40;76.30;;;6.34;86.42;95833.66;5013566;28;20037;-66
2021/10/29 10:51:23;;;;;;;16.27;14.63;;;8.50;76.20;;;6.37;86.82;95838.53;5013312;28;20041;-66
2021/10/29 10:53:55;;;;;;;26.40;23.58;;;8.40;76.50;;;6.35;86.50;95835.28;5029872;28;20029;-66
2021/10/29 11:05:19;;;;;;;17.08;15.30;;;8.60;76.80;;;6.52;86.62;95810.69;5009367;28;20040;-67
2021/10/29 11:10:22;;;;;;;16.92;15.18;;;8.70;76.00;;;6.61;86.01;95799.22;5025241;28;20038;-66
2021/10/29 11:12:47;;;;;;;18.00;16.10;;;8.70;75.90;;;6.59;86.14;95801.22;5025253;28;20406;-66
2021/10/29 11:15:20;;;;;;;17.23;15.38;;;8.50;75.90;;;6.55;86.38;95791.25;5027752;28;20037;-65
2021/10/29 11:18:01;;;;;;;16.70;14.90;;;8.50;76.60;;;6.57;85.58;95782.28;5028846;28;20026;-66
2021/10/29 11:20:40;;;;;;;16.58;14.88;;;8.60;76.60;;;6.61;85.82;95783.56;5012236;28;20499;-66
2021/10/29 11:23:38;;;;;;;17.13;15.30;;;8.70;76.00;;;6.67;86.05;95779.44;5029934;28;20037;-66
2021/10/29 11:26:19;;;;;;;18.13;16.23;;;8.90;75.90;;;6.69;85.78;95785.28;5004965;28;20056;-66
2021/10/29 11:28:50;;;;;;;17.23;15.43;;;8.90;75.50;;;6.72;85.49;95783.16;4995770;28;20054;-66
2021/10/29 11:31:18;;;;;;;;;;;9.00;75.70;;;6.76;85.44;95771.34;4992686;28;20042;-66
2021/10/29 11:33:49;;;;;;;20.95;17.27;;;9.00;75.50;;;6.82;85.86;95775.09;5025161;28;20409;-66
2021/10/29 11:36:17;;;;;;;19.60;17.52;;;9.10;75.30;;;6.84;85.92;95767.09;5008912;28;20034;-66
2021/10/29 11:38:46;;;;;;;19.13;16.58;;;9.00;75.30;;;6.89;85.16;95770.78;4988107;28;20037;-66
2021/10/29 11:41:25;;;;;;;16.92;15.15;;;9.00;75.60;;;6.95;85.83;95764.03;5012646;28;20029;-65
2021/10/29 11:43:51;;;;;;;17.88;15.98;;;9.10;75.30;;;6.96;85.30;95755.22;4996598;28;20631;-66
2021/10/29 11:46:17;;;;;;;16.83;15.10;;;9.10;75.50;;;7.00;85.36;95757.31;5012140;28;20112;-66
2021/10/29 11:48:52;;;;;;;17.50;15.43;;;9.20;75.10;;;7.07;85.36;95757.44;5013250;28;20037;-66
2021/10/29 11:51:19;;;;;;;17.45;15.30;;;9.20;74.40;;;7.07;84.50;95752.19;5008157;28;20041;-66
2021/10/29 11:53:51;;;;;;;18.08;16.17;;;9.30;74.30;;;7.09;85.19;95755.44;5008875;28;20033;-66
2021/10/29 11:56:32;;;;;;;18.60;15.77;;;9.30;75.00;;;7.13;84.39;95756.72;5012526;28;20531;-65
2021/10/29 12:07:21;;;;;;;16.85;15.15;;;9.60;74.50;;;7.31;84.74;95738.09;5000341;28;20460;-65
2021/10/29 12:09:48;;;;;;;17.65;15.85;;;9.60;74.30;;;7.30;84.19;95732.06;5015913;28;20040;-66
2021/10/29 12:12:25;;;;;;;17.83;15.95;;;9.50;74.00;;;7.36;83.82;95733.97;5031872;28;20034;-66
2021/10/29 12:14:52;;;;;;;17.52;15.65;;;9.50;73.80;;;7.39;84.20;95740.63;5017019;28;20041;-66
2021/10/29 12:17:24;;;;;;;20.83;17.88;;;9.50;74.20;;;7.42;84.12;95742.09;5020609;28;20053;-66
2021/10/29 12:19:55;;;;;;;16.90;15.20;;;9.60;74.20;;;7.42;83.68;95736.84;5028122;28;20041;-66
2021/10/29 12:22:30;;;;;;;18.08;16.27;;;9.60;73.90;;;7.45;83.47;95726.03;5012020;28;20026;-66
2021/10/29 12:25:06;;;;;;;19.50;16.08;;;9.60;73.40;;;7.44;83.24;95727.00;5016882;28;20442;-67
2021/10/29 12:27:57;;;;;;;17.58;15.88;;;9.60;73.90;;;7.45;83.51;95728.63;5016330;28;20099;-66
2021/10/29 12:39:24;;;;;;;17.70;15.98;;;9.50;73.80;;;7.40;84.19;95715.28;5031622;28;20084;-67
2021/10/29 12:53:16;;;;;;;18.00;16.02;;;9.70;74.40;;;7.51;84.19;95707.00;5017677;28;20042;-67